Time;durP1;ratioP1;P1;durP2;ratioP2;P2;SDS_P1;SDS_P2;PMS_P1;PMS_P2;Temp;Humidity;BMP_temperature;BMP_pressure;BME280_temperature;BME280_humidity;BME280_pressure;Samples;Min_cycle;Max_cycle;Signal;HPM_P1;HPM_P2
2022/03/12 00:01:18;;;;;;;;;3.25;2.25;;;;;10.40;70.36;100835.56;5055083;28;45516;-74
2022/03/12 00:03:46;;;;;;;;;1.75;1.75;;;;;10.41;70.71;100840.00;5054249;28;45395;-73
2022/03/12 00:06:12;;;;;;;;;3.00;3.00;;;;;10.31;70.69;100824.38;5033032;28;47507;-73
2022/03/12 00:08:42;;;;;;;;;4.00;2.00;;;;;10.34;70.55;100843.03;5048875;28;45234;-73
2022/03/12 00:11:13;;;;;;;;;4.25;3.00;;;;;10.33;71.17;100854.66;5054361;28;45396;-74
2022/03/12 00:13:39;;;;;;;;;4.00;3.00;;;;;10.34;70.49;100843.03;5054410;28;45359;-74
2022/03/12 00:16:08;;;;;;;;;3.75;2.50;;;;;10.31;70.93;100861.91;5054478;28;46061;-74
2022/03/12 00:18:36;;;;;;;;;2.75;2.75;;;;;10.22;70.86;100847.09;5054284;28;45326;-73
2022/03/12 00:21:02;;;;;;;;;2.00;2.00;;;;;10.20;70.72;100844.50;5054637;28;45470;-72
2022/03/12 00:23:29;;;;;;;;;1.75;1.75;;;;;10.27;70.96;100861.19;5054303;28;45245;-74
2022/03/12 00:25:55;;;;;;;;;0.75;0.75;;;;;10.10;70.68;100837.75;5051580;28;46159;-74
2022/03/12 00:28:20;;;;;;;;;2.25;2.25;;;;;10.18;70.67;100850.84;5053686;28;45386;-74
2022/03/12 05:32:13;;;;;;;;;2.00;2.00;;;;;10.11;67.45;101051.13;5055339;27;45548;-73
2022/03/12 05:34:39;;;;;;;;;2.75;2.25;;;;;10.12;67.53;101052.00;5056785;28;45219;-74
2022/03/12 05:37:08;;;;;;;;;1.00;1.00;;;;;10.12;67.00;101035.94;5057064;28;45236;-73
2022/03/12 05:39:34;;;;;;;;;4.00;2.75;;;;;10.05;66.87;101024.56;5056521;28;45348;-73
2022/03/12 05:42:01;;;;;;;;;2.00;2.00;;;;;10.09;67.21;101038.72;5056663;28;46093;-74
2022/03/12 05:44:28;;;;;;;;;5.50;3.00;;;;;10.14;67.46;101037.59;5056580;28;45301;-72
2022/03/12 05:46:53;;;;;;;;;4.75;3.75;;;;;10.09;67.28;101030.69;5056616;28;45532;-72
2022/03/12 05:49:19;;;;;;;;;3.50;3.00;;;;;10.13;67.29;101043.88;5056679;28;45379;-73
2022/03/12 05:51:44;;;;;;;;;3.50;2.25;;;;;10.14;66.81;101050.13;5056776;28;46142;-74
2022/03/12 05:54:10;;;;;;;;;2.75;2.75;;;;;10.14;67.01;101059.03;5055427;28;45367;-73
2022/03/12 05:56:39;;;;;;;;;4.75;3.75;;;;;10.18;67.00;101067.88;5056761;28;45267;-71
2022/03/12 05:59:04;;;;;;;;;2.75;1.00;;;;;10.16;66.88;101059.84;5056276;28;46467;-73
2022/03/12 06:01:30;;;;;;;;;3.75;3.75;;;;;10.20;67.06;101057.97;5056315;28;45364;-72
2022/03/12 06:03:55;;;;;;;;;2.00;2.00;;;;;10.19;66.84;101056.22;5055911;28;45377;-72
2022/03/12 06:06:24;;;;;;;;;4.00;3.25;;;;;10.18;66.61;101058.03;5057197;28;45739;-74
2022/03/12 06:08:49;;;;;;;;;3.00;3.00;;;;;10.10;66.85;101059.22;5055979;28;45428;-72
2022/03/12 06:11:15;;;;;;;;;1.50;1.50;;;;;10.15;66.67;101062.56;5056359;28;46083;-71
2022/03/12 06:13:50;;;;;;;;;7.75;3.25;;;;;10.14;66.60;101066.19;5056245;28;45430;-73
2022/03/12 06:16:16;;;;;;;;;5.50;2.00;;;;;10.11;66.56;101075.25;5056452;28;45456;-71
2022/03/12 06:18:41;;;;;;;;;4.50;4.50;;;;;10.07;66.59;101081.63;5054593;28;45408;-73
2022/03/12 06:21:07;;;;;;;;;3.00;3.00;;;;;10.03;66.60;101085.38;5033481;28;47205;-74
2022/03/12 06:23:33;;;;;;;;;3.25;1.75;;;;;9.98;66.87;101087.34;5052768;28;45410;-71
2022/03/12 06:26:01;;;;;;;;;2.00;2.00;;;;;9.90;67.30;101084.06;5056115;28;45383;-72
2022/03/12 06:28:27;;;;;;;;;3.75;3.00;;;;;9.92;67.34;101095.63;5055932;28;45612;-73
2022/03/12 06:30:53;;;;;;;;;3.00;2.75;;;;;9.79;67.40;101091.63;5052219;28;46107;-75
2022/03/12 06:33:19;;;;;;;;;2.00;2.00;;;;;9.89;67.13;101109.09;5035503;28;45628;-73
2022/03/12 06:35:46;;;;;;;;;1.75;1.25;;;;;9.88;67.16;101110.03;5056173;28;45302;-75
2022/03/12 06:38:14;;;;;;;;;4.50;3.00;;;;;9.89;67.14;101103.75;5056021;28;45425;-73
2022/03/12 06:40:40;;;;;;;;;2.00;2.00;;;;;9.90;67.36;101102.81;5055818;28;46473;-73
2022/03/12 06:43:08;;;;;;;;;0.75;0.00;;;;;9.92;67.35;101103.66;5054342;28;45412;-74
2022/03/12 06:45:34;;;;;;;;;4.75;3.25;;;;;9.94;67.08;101101.78;5056991;28;45381;-73
2022/03/12 06:48:00;;;;;;;;;3.00;2.75;;;;;9.86;67.14;101102.09;5055317;28;45536;-73
2022/03/12 06:50:26;;;;;;;;;4.00;3.00;;;;;9.92;66.92;101111.69;5055763;28;45133;-74
2022/03/12 06:52:53;;;;;;;;;2.75;2.75;;;;;9.93;66.69;101121.47;5055435;28;45536;-73
2022/03/12 06:55:21;;;;;;;;;2.50;2.50;;;;;9.88;66.50;101134.13;5055365;28;45302;-74
2022/03/12 06:57:48;;;;;;;;;5.00;3.25;;;;;9.83;66.91;101138.81;5055318;28;45599;-73
2022/03/12 07:00:16;;;;;;;;;7.25;3.50;;;;;9.80;66.69;101145.13;5055537;28;46138;-74
2022/03/12 07:02:42;;;;;;;;;1.50;1.50;;;;;9.76;66.87;101148.00;5055290;28;45382;-75
2022/03/12 07:05:08;;;;;;;;;3.00;3.00;;;;;9.74;67.41;101149.84;5054059;28;45383;-74
2022/03/12 07:07:34;;;;;;;;;5.75;4.00;;;;;9.74;67.17;101161.44;5055211;28;45604;-72
2022/03/12 07:09:59;;;;;;;;;3.00;3.00;;;;;9.75;67.05;101164.97;5055119;28;46403;-74
2022/03/12 07:12:25;;;;;;;;;5.00;4.00;;;;;9.61;67.01;101146.72;5037047;28;45376;-73
2022/03/12 07:14:51;;;;;;;;;3.00;3.00;;;;;9.68;67.44;101156.31;5055473;28;45331;-74
2022/03/12 07:17:16;;;;;;;;;4.00;4.00;;;;;9.71;67.33;101166.00;5054955;28;45573;-74
2022/03/12 07:19:42;;;;;;;;;3.00;3.00;;;;;9.66;67.23;101173.34;5055124;28;45548;-73
2022/03/12 07:22:07;;;;;;;;;3.00;3.00;;;;;9.61;67.28;101148.53;5055126;28;45450;-78
2022/03/12 07:24:35;;;;;;;;;4.25;4.25;;;;;9.60;67.41;101147.66;5055718;28;46011;-77
2022/03/12 07:27:00;;;;;;;;;4.00;4.00;;;;;9.69;67.40;101154.50;5054967;28;45496;-77
2022/03/12 07:29:29;;;;;;;;;4.00;4.00;;;;;9.68;67.32;101156.31;5033587;28;47695;-74
2022/03/12 07:31:55;;;;;;;;;3.75;3.25;;;;;9.76;66.91;101174.75;5053344;28;45309;-74
2022/03/12 07:34:22;;;;;;;;;4.25;4.25;;;;;9.80;66.89;101174.59;5054964;28;45358;-72
2022/03/12 07:36:48;;;;;;;;;4.75;4.75;;;;;9.82;67.55;101175.41;5033346;28;45846;-72
2022/03/12 07:39:13;;;;;;;;;4.50;4.50;;;;;9.84;66.87;101170.00;5046926;28;45390;-77
2022/03/12 07:41:39;;;;;;;;;4.00;4.00;;;;;9.84;67.23;101173.56;5054641;28;45245;-72
2022/03/12 07:44:07;;;;;;;;;2.00;2.00;;;;;9.90;66.89;101171.56;5054879;28;45487;-73
2022/03/12 07:46:33;;;;;;;;;4.00;4.00;;;;;9.88;67.21;101171.63;5036931;28;46803;-72
2022/03/12 07:48:59;;;;;;;;;3.00;3.00;;;;;9.85;67.40;101172.63;5058261;28;45452;-73
2022/03/12 07:51:26;;;;;;;;;5.50;3.00;;;;;9.95;67.01;101175.84;5054670;28;45420;-76
2022/03/12 07:53:52;;;;;;;;;5.25;2.50;;;;;9.97;67.00;101175.78;5052340;28;45498;-73
2022/03/12 07:56:17;;;;;;;;;3.25;3.25;;;;;10.02;66.78;101179.19;5053302;28;45607;-72
2022/03/12 07:58:43;;;;;;;;;9.75;8.50;;;;;10.02;66.58;101177.38;5053822;28;46015;-71
2022/03/12 08:01:08;;;;;;;;;3.00;3.00;;;;;10.05;66.67;101185.28;5054659;28;45196;-72
2022/03/12 08:03:36;;;;;;;;;3.00;3.00;;;;;9.94;66.60;101171.44;5054592;28;45196;-75
2022/03/12 08:06:03;;;;;;;;;4.75;4.00;;;;;9.89;66.68;101200.16;5054105;28;45345;-75
2022/03/12 08:08:28;;;;;;;;;6.25;4.00;;;;;9.90;66.94;101201.03;5054649;28;46356;-79
2022/03/12 08:13:40;;;;;;;;;3.00;3.00;;;;;9.96;67.22;101219.56;5054414;28;45474;-72
2022/03/12 08:16:05;;;;;;;;;3.00;3.00;;;;;9.93;67.60;101217.88;5054157;28;45364;-71
2022/03/12 08:18:31;;;;;;;;;8.50;6.75;;;;;10.05;67.08;101224.59;5053606;28;45374;-72
2022/03/12 08:20:56;;;;;;;;;3.75;2.75;;;;;10.15;67.22;101231.38;5053837;28;45275;-72
2022/03/12 08:23:22;;;;;;;;;5.00;3.75;;;;;10.20;66.58;101226.75;5054368;28;45383;-71
2022/03/12 08:25:48;;;;;;;;;4.00;4.00;;;;;10.28;66.50;101234.53;5035765;28;46205;-71
2022/03/12 08:28:14;;;;;;;;;3.25;2.25;;;;;10.38;65.74;101239.47;5053881;28;45325;-72
2022/03/12 08:30:39;;;;;;;;;5.25;3.50;;;;;10.45;65.46;101241.00;5054077;28;45385;-71
2022/03/12 08:33:05;;;;;;;;;4.25;4.25;;;;;10.50;65.49;101244.38;5053788;28;45323;-72
2022/03/12 08:35:31;;;;;;;;;5.75;4.75;;;;;10.48;65.22;101238.19;5053642;28;45314;-73
2022/03/12 08:37:57;;;;;;;;;3.50;3.00;;;;;10.58;65.57;101250.31;5053932;28;45598;-72
2022/03/12 08:40:25;;;;;;;;;3.75;2.75;;;;;10.58;65.12;101244.97;5053840;28;45345;-74
2022/03/12 08:42:54;;;;;;;;;4.25;3.25;;;;;10.57;64.95;101253.94;5054044;28;45488;-72
2022/03/12 08:45:20;;;;;;;;;5.25;3.25;;;;;10.54;65.13;101240.66;5055065;28;45401;-76
2022/03/12 08:47:46;;;;;;;;;2.25;2.25;;;;;10.59;65.56;101249.41;5053505;28;45295;-73
2022/03/12 08:50:12;;;;;;;;;3.00;3.00;;;;;10.65;64.92;101242.03;5054042;28;45413;-73
2022/03/12 08:52:39;;;;;;;;;4.50;4.50;;;;;10.65;65.41;101242.03;5053779;28;45440;-74
2022/03/12 08:55:06;;;;;;;;;4.00;4.00;;;;;10.62;65.17;101232.31;5053276;28;45369;-73
2022/03/12 08:57:31;;;;;;;;;3.00;2.00;;;;;10.65;65.07;101234.88;5053739;28;45444;-74
2022/03/12 08:59:57;;;;;;;;;5.25;4.00;;;;;10.73;64.95;101242.63;5057580;28;45333;-74
2022/03/12 09:02:23;;;;;;;;;4.25;3.00;;;;;10.75;65.13;101244.31;5057228;28;45361;-74
2022/03/12 09:04:49;;;;;;;;;3.00;3.00;;;;;10.81;64.86;101243.19;5056472;28;45183;-72
2022/03/12 09:07:14;;;;;;;;;4.75;4.00;;;;;10.81;65.02;101244.06;5050584;28;45545;-72
2022/03/12 09:09:40;;;;;;;;;5.00;5.00;;;;;10.75;65.06;101238.06;5050995;28;45340;-73
2022/03/12 09:12:06;;;;;;;;;1.50;1.25;;;;;10.83;64.97;101238.66;5057428;28;45311;-75
2022/03/12 09:14:34;;;;;;;;;4.75;4.00;;;;;10.83;64.93;101234.16;5057328;28;45622;-72
2022/03/12 09:17:02;;;;;;;;;4.50;2.50;;;;;10.87;65.11;101240.28;5056776;28;46230;-74
2022/03/12 09:19:27;;;;;;;;;3.50;3.00;;;;;10.81;64.81;101224.41;5038755;28;45485;-74
2022/03/12 09:21:52;;;;;;;;;5.25;3.50;;;;;10.80;64.85;101231.59;5057365;28;45334;-71
2022/03/12 09:24:18;;;;;;;;;4.00;4.00;;;;;10.81;65.26;101232.47;5056891;28;45457;-71
2022/03/12 09:26:43;;;;;;;;;8.25;5.00;;;;;10.80;65.21;101234.28;5055599;28;46396;-72
2022/03/12 09:29:10;;;;;;;;;3.75;3.00;;;;;10.84;65.60;101232.34;5057446;28;45434;-72
2022/03/12 09:31:35;;;;;;;;;3.25;3.25;;;;;10.86;65.58;101234.06;5056704;28;45559;-74
2022/03/12 09:34:02;;;;;;;;;6.75;4.75;;;;;10.88;65.72;101229.50;5056727;28;45206;-73
2022/03/12 09:36:28;;;;;;;;;3.50;1.00;;;;;10.86;65.76;101235.84;5056630;28;46237;-71
2022/03/12 09:38:54;;;;;;;;;5.00;5.00;;;;;10.88;65.79;101231.31;5056746;28;45484;-72
2022/03/12 09:41:19;;;;;;;;;6.50;5.00;;;;;10.80;65.94;101220.00;5056417;28;45525;-71
2022/03/12 09:43:45;;;;;;;;;4.00;4.00;;;;;10.95;66.44;101235.50;5056982;28;45544;-72
2022/03/12 09:46:10;;;;;;;;;4.75;4.75;;;;;10.96;65.79;101222.03;5056079;28;46087;-73
2022/03/12 09:48:36;;;;;;;;;4.00;4.00;;;;;10.99;66.05;101231.75;5056216;28;45391;-73
2022/03/12 09:51:02;;;;;;;;;5.00;5.00;;;;;10.95;66.36;101219.41;5056857;28;45396;-71
2022/03/12 09:53:27;;;;;;;;;6.25;4.50;;;;;10.98;66.37;101230.00;5056770;28;45464;-73
2022/03/12 09:55:52;;;;;;;;;5.00;5.00;;;;;10.89;66.31;101225.88;5055918;28;45353;-73
2022/03/12 09:58:18;;;;;;;;;3.50;3.25;;;;;10.99;66.70;101243.34;5056645;28;45318;-75
2022/03/12 10:00:44;;;;;;;;;5.25;3.75;;;;;11.08;66.62;101236.75;5038052;28;45367;-72
2022/03/12 10:03:09;;;;;;;;;6.75;5.00;;;;;11.03;65.93;101205.69;5056236;28;45347;-75
2022/03/12 10:05:34;;;;;;;;;4.00;4.00;;;;;11.25;65.83;101238.75;5056289;28;46400;-74
2022/03/12 10:08:00;;;;;;;;;6.75;4.50;;;;;11.32;65.30;101219.63;5056675;28;45445;-76
2022/03/12 10:10:25;;;;;;;;;7.50;5.00;;;;;11.30;65.90;101218.84;5055694;28;45469;-71
2022/03/12 10:12:51;;;;;;;;;7.50;4.50;;;;;11.28;65.40;101230.56;5056136;28;45767;-72
2022/03/12 10:15:19;;;;;;;;;3.50;3.50;;;;;11.27;65.58;101223.47;5056033;28;45856;-72
2022/03/12 10:17:45;;;;;;;;;4.75;4.25;;;;;11.30;66.21;101221.53;5056279;28;45337;-71
2022/03/12 10:20:11;;;;;;;;;6.00;4.50;;;;;11.42;65.33;101219.25;5056077;28;45371;-71
2022/03/12 10:22:40;;;;;;;;;10.00;4.00;;;;;11.45;65.41;101205.72;5056010;28;46029;-71
2022/03/12 10:25:07;;;;;;;;;5.50;3.00;;;;;11.52;65.60;101205.38;5055767;28;45323;-71
2022/03/12 10:27:33;;;;;;;;;4.75;4.25;;;;;11.63;64.95;101202.25;5055704;28;45435;-74
2022/03/12 10:29:59;;;;;;;;;5.00;5.00;;;;;11.73;64.86;101214.34;5056247;28;45621;-75
2022/03/12 10:32:26;;;;;;;;;0.75;0.75;;;;;11.79;64.52;101218.59;5055977;28;45307;-72
2022/03/12 10:34:55;;;;;;;;;9.00;6.00;;;;;11.83;64.82;101217.53;5055747;28;45412;-76
2022/03/12 10:37:26;;;;;;;;;6.25;5.25;;;;;11.97;64.59;101209.75;5056478;28;45473;-75
2022/03/12 10:40:18;;;;;;;;;6.00;3.00;;;;;12.11;63.85;101212.69;5047587;28;45497;-74
2022/03/12 10:43:05;;;;;;;;;4.75;4.75;;;;;12.20;63.68;101217.66;5055985;28;45404;-73
2022/03/12 10:45:42;;;;;;;;;5.00;5.00;;;;;12.30;63.53;101216.31;5056174;28;45840;-75
2022/03/12 10:48:08;;;;;;;;;7.00;5.25;;;;;12.38;63.66;101214.13;5055597;28;45327;-75
2022/03/12 10:50:45;;;;;;;;;5.25;4.25;;;;;12.41;63.13;101205.94;5055822;28;45305;-75
2022/03/12 10:53:12;;;;;;;;;5.25;5.00;;;;;12.43;63.05;101201.34;5055667;28;45515;-76
2022/03/12 10:55:41;;;;;;;;;6.25;6.25;;;;;12.50;62.67;101207.34;5054952;28;46192;-73
2022/03/12 10:58:10;;;;;;;;;6.00;6.00;;;;;12.50;62.67;101215.41;5055454;28;45381;-77
2022/03/12 11:00:39;;;;;;;;;8.00;5.50;;;;;12.47;62.72;101202.97;5055736;28;45601;-77
2022/03/12 11:03:13;;;;;;;;;10.00;6.00;;;;;12.53;62.60;101204.47;5033797;28;46114;-73
2022/03/12 11:05:39;;;;;;;;;8.25;5.50;;;;;12.59;63.00;101197.97;5052462;28;46284;-77
2022/03/12 11:08:07;;;;;;;;;5.00;5.00;;;;;12.68;63.02;101190.28;5055499;28;45243;-74
2022/03/12 11:10:33;;;;;;;;;5.00;5.00;;;;;12.73;62.40;101182.03;5055036;28;45391;-76
2022/03/12 11:12:59;;;;;;;;;4.50;4.50;;;;;12.85;63.05;101189.50;5055187;28;45305;-76
2022/03/12 11:15:24;;;;;;;;;5.75;5.00;;;;;12.75;61.73;101172.06;5054018;28;46217;-77
2022/03/12 11:17:51;;;;;;;;;7.50;4.50;;;;;12.74;61.69;101183.78;5055041;28;45316;-73
2022/03/12 11:20:28;;;;;;;;;4.75;4.50;;;;;12.70;62.21;101184.84;5054296;28;45396;-74
2022/03/12 11:23:06;;;;;;;;;4.25;2.25;;;;;12.67;62.02;101180.50;5055304;28;45307;-75
2022/03/12 11:25:31;;;;;;;;;11.00;6.00;;;;;12.64;62.48;101169.88;5054957;28;45975;-74
2022/03/12 11:28:00;;;;;;;;;6.75;6.00;;;;;12.74;62.43;101179.28;5055109;28;45373;-76
2022/03/12 11:30:30;;;;;;;;;7.00;5.75;;;;;12.69;62.05;101158.88;5055136;28;45330;-74
2022/03/12 11:33:07;;;;;;;;;9.50;6.00;;;;;12.55;61.49;101142.56;5054849;28;45721;-79
2022/03/12 11:35:44;;;;;;;;;4.75;4.75;;;;;12.59;62.23;101171.91;5036648;28;47211;-75
2022/03/12 11:38:17;;;;;;;;;4.00;4.00;;;;;12.55;62.14;101158.69;5055032;28;45464;-75
2022/03/12 11:40:46;;;;;;;;;4.75;4.75;;;;;12.63;62.67;101165.44;5054879;28;45376;-74
2022/03/12 11:43:32;;;;;;;;;7.75;4.50;;;;;12.68;62.34;101159.84;5055259;28;45390;-77
2022/03/12 11:46:03;;;;;;;;;4.75;3.50;;;;;12.74;61.90;101160.44;5056332;28;46020;-76
2022/03/12 11:48:31;;;;;;;;;7.00;3.75;;;;;12.83;62.28;101168.06;5057502;28;45334;-76
2022/03/12 11:51:00;;;;;;;;;6.00;6.00;;;;;12.79;62.43;101168.28;5056452;28;45298;-80
2022/03/12 11:53:25;;;;;;;;;5.25;5.00;;;;;12.76;61.84;101171.13;5037301;28;45659;-76
2022/03/12 11:55:52;;;;;;;;;4.50;4.50;;;;;12.69;61.47;101158.88;5056479;28;46527;-75
2022/03/12 11:58:18;;;;;;;;;9.50;5.25;;;;;12.72;62.20;101156.06;5053627;28;45490;-79
2022/03/12 12:00:46;;;;;;;;;6.25;6.25;;;;;12.63;62.39;101149.31;5054062;28;45552;-75
2022/03/12 12:03:16;;;;;;;;;4.75;4.50;;;;;12.60;62.50;101138.69;5033816;28;46176;-78
2022/03/12 12:05:46;;;;;;;;;8.75;5.75;;;;;12.71;62.63;101152.50;5049165;28;45530;-77
2022/03/12 12:08:15;;;;;;;;;5.00;4.25;;;;;12.58;61.63;101123.59;5053492;28;45362;-78
2022/03/12 12:10:42;;;;;;;;;4.00;4.00;;;;;12.72;62.05;101142.63;5036542;28;45395;-78
2022/03/12 12:13:10;;;;;;;;;8.75;5.00;;;;;12.81;62.33;101139.47;5055662;28;45304;-76
2022/03/12 12:15:36;;;;;;;;;5.00;5.00;;;;;12.82;62.13;101133.16;5054233;28;45234;-78
2022/03/12 12:18:07;;;;;;;;;4.75;4.75;;;;;12.81;62.25;101118.84;5053791;28;45540;-77
2022/03/12 12:20:34;;;;;;;;;7.75;5.25;;;;;12.92;61.98;101137.16;5055691;28;45322;-77
2022/03/12 12:23:01;;;;;;;;;5.25;5.25;;;;;12.93;61.74;101122.72;5053509;28;45567;-78
2022/03/12 12:25:34;;;;;;;;;5.00;5.00;;;;;12.87;61.93;101106.88;5055479;28;45998;-78
2022/03/12 12:28:12;;;;;;;;;6.50;6.00;;;;;12.88;61.79;101112.19;5057429;28;45471;-80
2022/03/12 12:30:42;;;;;;;;;6.25;5.00;;;;;12.87;62.08;101110.44;5055693;28;45342;-78
2022/03/12 12:33:23;;;;;;;;;5.25;5.25;;;;;12.84;61.49;101104.38;5041971;28;46664;-77
2022/03/12 12:36:10;;;;;;;;;4.25;4.00;;;;;12.75;61.92;101092.22;5061743;28;45462;-77
2022/03/12 12:38:37;;;;;;;;;3.50;3.00;;;;;12.78;61.85;101101.94;5059675;28;45397;-81
2022/03/12 12:41:03;;;;;;;;;7.75;5.25;;;;;12.82;61.61;101100.88;5060879;28;45398;-74
2022/03/12 12:43:36;;;;;;;;;7.00;5.50;;;;;12.83;60.90;101090.03;5061148;28;45307;-77
2022/03/12 12:46:08;;;;;;;;;4.00;4.00;;;;;12.92;61.74;101090.53;5061118;28;45401;-76
2022/03/12 12:48:51;;;;;;;;;8.00;6.00;;;;;12.96;61.69;101084.91;5061477;28;45465;-76
2022/03/12 12:51:27;;;;;;;;;7.25;7.25;;;;;13.03;61.15;101088.16;5060979;28;45452;-75
2022/03/12 12:53:57;;;;;;;;;6.00;6.00;;;;;13.06;61.41;101088.00;5038993;28;45262;-76
2022/03/12 12:56:35;;;;;;;;;7.25;6.00;;;;;13.07;61.25;101076.28;5060941;28;45355;-74
2022/03/12 12:59:03;;;;;;;;;13.00;7.75;;;;;13.09;61.24;101080.66;5060441;28;45343;-72
2022/03/12 13:01:35;;;;;;;;;6.75;5.75;;;;;13.13;61.37;101073.28;5061356;28;45493;-83
2022/03/12 13:04:03;;;;;;;;;6.50;5.75;;;;;13.17;61.53;101077.59;5061288;28;45479;-81
2022/03/12 13:06:40;;;;;;;;;7.25;6.00;;;;;13.18;61.24;101072.09;5061046;28;45639;-74
2022/03/12 13:09:10;;;;;;;;;5.50;5.00;;;;;13.19;60.89;101070.28;5060382;28;45463;-74
2022/03/12 13:11:40;;;;;;;;;7.75;6.75;;;;;13.13;60.98;101067.88;5060777;28;45219;-74
2022/03/12 13:14:19;;;;;;;;;7.50;6.75;;;;;12.96;61.64;101047.22;5060269;28;46143;-70
2022/03/12 13:16:58;;;;;;;;;6.25;6.00;;;;;13.03;61.68;101058.53;5060193;28;46193;-71
2022/03/12 13:19:33;;;;;;;;;5.25;5.25;;;;;13.13;61.62;101057.13;5060208;28;45552;-72
2022/03/12 13:22:05;;;;;;;;;5.00;5.00;;;;;13.36;60.85;101051.44;5060652;28;45645;-73
2022/03/12 13:24:54;;;;;;;;;6.00;5.00;;;;;13.52;60.84;101044.31;5060101;28;45288;-74
2022/03/12 13:27:31;;;;;;;;;5.25;5.00;;;;;13.62;60.44;101031.19;5059827;28;46077;-74
2022/03/12 13:30:10;;;;;;;;;6.00;5.75;;;;;13.73;59.81;101036.00;5060085;28;45487;-73
2022/03/12 13:32:38;;;;;;;;;6.75;5.75;;;;;13.79;59.55;101036.53;5060461;28;45259;-74
2022/03/12 13:35:04;;;;;;;;;6.00;4.25;;;;;13.69;59.60;101003.00;5060013;28;45386;-75
2022/03/12 13:37:29;;;;;;;;;7.00;4.50;;;;;13.76;59.82;101012.47;5060041;28;45436;-76
2022/03/12 13:40:09;;;;;;;;;5.75;5.75;;;;;13.74;59.03;101006.31;5058639;28;45381;-76
2022/03/12 13:42:37;;;;;;;;;3.00;3.00;;;;;13.79;58.41;101004.22;5059327;28;45455;-76
2022/03/12 13:45:04;;;;;;;;;3.75;3.00;;;;;13.83;58.71;100997.72;5057045;28;45432;-75
2022/03/12 13:47:31;;;;;;;;;3.50;3.50;;;;;13.87;58.38;100996.56;5056896;28;46121;-76
2022/03/12 13:49:57;;;;;;;;;3.25;3.25;;;;;13.88;58.76;100975.88;5057107;28;45411;-75
2022/03/12 13:52:23;;;;;;;;;6.25;4.00;;;;;14.01;58.34;100991.28;5056674;28;45419;-75
2022/03/12 13:54:59;;;;;;;;;3.00;3.00;;;;;14.06;57.80;100984.75;5056850;28;45348;-75
2022/03/12 13:57:27;;;;;;;;;2.50;2.50;;;;;14.06;56.41;100980.25;5056633;28;45515;-75
2022/03/12 14:00:00;;;;;;;;;2.50;1.75;;;;;14.17;56.48;100990.44;5056942;28;45284;-75
2022/03/12 14:02:26;;;;;;;;;4.00;3.25;;;;;14.17;56.44;100985.03;5056598;28;45267;-74
2022/03/12 14:04:52;;;;;;;;;5.00;2.00;;;;;14.10;56.73;100973.75;5056926;28;45180;-75
2022/03/12 14:07:18;;;;;;;;;2.50;2.25;;;;;14.04;56.95;100968.66;5056834;28;46212;-73
2022/03/12 14:09:46;;;;;;;;;2.00;2.00;;;;;13.95;57.30;100966.53;5056249;28;45393;-76
2022/03/12 14:12:18;;;;;;;;;3.00;3.00;;;;;13.76;57.63;100969.38;5056438;28;45389;-75
2022/03/12 14:14:45;;;;;;;;;2.50;2.50;;;;;13.74;57.82;100982.03;5056640;28;45578;-75
2022/03/12 14:17:11;;;;;;;;;3.75;3.75;;;;;13.77;57.80;100971.13;5056433;28;45389;-75
2022/03/12 14:19:37;;;;;;;;;3.75;3.75;;;;;13.81;57.85;100971.78;5056140;28;45373;-75
2022/03/12 14:22:05;;;;;;;;;4.00;4.00;;;;;13.87;57.19;100964.22;5056040;28;45500;-74
2022/03/12 14:24:33;;;;;;;;;3.50;3.50;;;;;13.90;56.91;100964.06;5056740;28;45448;-76
2022/03/12 14:27:02;;;;;;;;;3.50;3.50;;;;;13.81;56.67;100974.50;5034462;28;46473;-76
2022/03/12 14:29:33;;;;;;;;;3.00;3.00;;;;;13.77;56.67;100957.63;5049264;28;45440;-75
2022/03/12 14:32:04;;;;;;;;;5.00;3.75;;;;;13.68;56.38;100958.16;5056256;28;45283;-75
2022/03/12 14:34:32;;;;;;;;;1.00;1.00;;;;;13.56;56.48;100969.59;5055889;28;45661;-75
2022/03/12 14:36:59;;;;;;;;;4.00;3.50;;;;;13.42;56.69;100956.88;5055991;28;45366;-75
2022/03/12 14:39:27;;;;;;;;;5.25;3.75;;;;;13.29;57.29;100955.78;5055394;28;45475;-76
2022/03/12 14:41:57;;;;;;;;;4.75;4.75;;;;;13.23;57.84;100956.13;5056136;28;45387;-75
2022/03/12 14:44:24;;;;;;;;;5.25;5.25;;;;;13.18;58.31;100971.66;5055537;28;45343;-74
2022/03/12 14:46:51;;;;;;;;;6.25;6.00;;;;;13.04;58.52;100958.88;5056065;28;45440;-75
2022/03/12 14:49:35;;;;;;;;;6.25;5.00;;;;;12.93;59.00;100955.88;5055539;28;45512;-76
2022/03/12 14:52:03;;;;;;;;;7.00;7.00;;;;;12.67;59.34;100973.38;5056107;28;45291;-77
2022/03/12 14:54:35;;;;;;;;;7.75;5.00;;;;;12.64;59.93;100972.66;5055044;28;45595;-76
2022/03/12 14:57:03;;;;;;;;;5.50;5.50;;;;;12.57;59.16;100947.03;5054462;28;46006;-74
2022/03/12 14:59:30;;;;;;;;;6.50;4.50;;;;;12.62;59.44;100955.72;5050525;28;45748;-74
2022/03/12 15:02:26;;;;;;;;;8.25;5.25;;;;;12.68;59.09;100961.66;5057082;28;45393;-73
2022/03/12 15:04:51;;;;;;;;;6.75;5.25;;;;;12.62;59.02;100961.97;5036138;28;45383;-71
2022/03/12 15:07:23;;;;;;;;;6.00;4.00;;;;;12.59;59.21;100956.72;5057186;28;46087;-71
2022/03/12 15:09:53;;;;;;;;;5.00;5.00;;;;;12.62;59.03;100964.66;5057221;28;45422;-72
2022/03/12 15:12:29;;;;;;;;;6.00;5.00;;;;;12.54;58.80;100960.63;5057639;28;45329;-72
2022/03/12 15:14:57;;;;;;;;;6.50;6.50;;;;;12.54;59.22;100955.22;5056760;28;46050;-70
2022/03/12 15:17:29;;;;;;;;;6.25;6.00;;;;;12.33;58.97;100928.50;5054098;28;45329;-76
2022/03/12 15:20:06;;;;;;;;;6.00;5.00;;;;;12.39;59.44;100941.63;5054598;28;45466;-75
2022/03/12 15:22:32;;;;;;;;;9.75;7.75;;;;;12.33;59.97;100949.13;5056381;28;45388;-76
2022/03/12 15:24:58;;;;;;;;;5.75;5.75;;;;;12.35;60.19;100949.91;5034147;28;46038;-75
2022/03/12 15:27:28;;;;;;;;;4.50;4.00;;;;;12.35;59.48;100949.91;5055976;28;45348;-75
2022/03/12 15:30:04;;;;;;;;;4.00;3.00;;;;;12.30;60.04;100947.47;5057415;28;45585;-76
2022/03/12 15:32:33;;;;;;;;;6.75;6.00;;;;;12.27;59.95;100942.22;5055787;28;45357;-74
2022/03/12 15:34:59;;;;;;;;;5.00;5.00;;;;;12.23;59.83;100931.72;5055513;28;45324;-76
2022/03/12 15:37:51;;;;;;;;;5.25;5.25;;;;;12.27;59.55;100947.59;5055357;28;45916;-72
2022/03/12 15:40:17;;;;;;;;;4.00;4.00;;;;;12.16;59.66;100933.84;5055020;28;45374;-75
2022/03/12 15:42:44;;;;;;;;;0.50;0.25;;;;;12.14;59.98;100930.34;5055166;28;45535;-75
2022/03/12 15:45:16;;;;;;;;;4.00;4.00;;;;;12.10;59.18;100923.38;5057273;28;45172;-76
2022/03/12 15:47:43;;;;;;;;;6.00;4.25;;;;;12.02;59.27;100931.81;5055396;28;46366;-78
2022/03/12 15:50:14;;;;;;;;;4.25;3.00;;;;;12.03;59.05;100941.63;5056025;28;45421;-75
2022/03/12 15:52:43;;;;;;;;;4.00;4.00;;;;;11.94;59.36;100925.94;5055541;28;45599;-74
2022/03/12 15:55:10;;;;;;;;;4.00;4.00;;;;;11.94;59.32;100942.06;5054467;28;45328;-73
2022/03/12 15:57:37;;;;;;;;;4.00;4.00;;;;;11.90;59.27;100936.94;5054058;28;45432;-73
2022/03/12 16:00:06;;;;;;;;;4.00;3.00;;;;;11.81;59.21;100914.06;5054751;28;45181;-73
2022/03/12 16:02:32;;;;;;;;;2.00;2.00;;;;;11.80;58.99;100898.03;5047881;28;45387;-75
2022/03/12 16:04:57;;;;;;;;;4.00;4.00;;;;;11.96;59.15;100926.75;5055036;28;45378;-72
2022/03/12 16:07:22;;;;;;;;;4.00;3.00;;;;;11.96;58.97;100912.44;5054234;28;45961;-76
2022/03/12 16:09:48;;;;;;;;;4.00;2.75;;;;;11.87;59.30;100899.47;5052803;28;45474;-80
2022/03/12 16:12:14;;;;;;;;;3.00;3.00;;;;;11.96;59.33;100912.44;5055379;28;45394;-76
2022/03/12 16:14:41;;;;;;;;;4.75;4.00;;;;;11.93;59.55;100913.44;5036899;28;45253;-74
2022/03/12 16:17:07;;;;;;;;;4.50;3.00;;;;;11.91;59.11;100891.16;5054192;28;45464;-74
2022/03/12 16:19:33;;;;;;;;;4.00;4.00;;;;;12.00;59.02;100911.31;5054125;28;45495;-74
2022/03/12 16:21:59;;;;;;;;;4.00;3.75;;;;;11.92;59.12;100897.41;5035945;28;45374;-77
2022/03/12 16:24:24;;;;;;;;;3.25;3.25;;;;;12.01;59.22;100902.31;5054049;28;45447;-72
2022/03/12 16:26:49;;;;;;;;;2.50;1.50;;;;;12.02;58.41;100909.44;5054145;28;45301;-73
2022/03/12 16:29:15;;;;;;;;;2.50;2.50;;;;;12.01;58.52;100900.50;5032923;28;45319;-72
2022/03/12 16:31:41;;;;;;;;;2.25;2.25;;;;;11.98;58.20;100903.38;5044209;28;45381;-72
2022/03/12 16:34:08;;;;;;;;;4.75;3.25;;;;;11.93;57.92;100904.53;5053959;28;46105;-73
2022/03/12 16:36:36;;;;;;;;;2.75;2.75;;;;;11.85;58.39;100895.97;5054108;28;47035;-72